sensor_id;sensor_type;location;lat;lon;timestamp;temperature;humidity
17033;DHT22;63208;52.178;21.016;2024-03-02T00:00:14;8.70;99.90
17033;DHT22;63208;52.178;21.016;2024-03-02T00:02:41;8.80;99.90
17033;DHT22;63208;52.178;21.016;2024-03-02T00:05:08;8.80;99.90
17033;DHT22;63208;52.178;21.016;2024-03-02T00:07:37;8.70;99.90
17033;DHT22;63208;52.178;21.016;2024-03-02T00:10:07;8.70;99.90
17033;DHT22;63208;52.178;21.016;2024-03-02T00:12:36;8.70;99.90
17033;DHT22;63208;52.178;21.016;2024-03-02T00:15:04;8.60;99.90
17033;DHT22;63208;52.178;21.016;2024-03-02T00:17:31;8.60;99.90
17033;DHT22;63208;52.178;21.016;2024-03-02T00:19:58;8.60;99.90
17033;DHT22;63208;52.178;21.016;2024-03-02T00:22:25;8.60;99.90
17033;DHT22;63208;52.178;21.016;2024-03-02T00:24:53;7.20;99.90
17033;DHT22;63208;52.178;21.016;2024-03-02T00:27:21;8.60;99.90
17033;DHT22;63208;52.178;21.016;2024-03-02T00:29:50;8.70;99.90
17033;DHT22;63208;52.178;21.016;2024-03-02T00:32:17;8.60;99.90
17033;DHT22;63208;52.178;21.016;2024-03-02T00:34:43;8.60;99.90
17033;DHT22;63208;52.178;21.016;2024-03-02T00:37:10;8.60;99.90
17033;DHT22;63208;52.178;21.016;2024-03-02T00:39:38;8.60;99.90
17033;DHT22;63208;52.178;21.016;2024-03-02T00:42:05;8.50;99.90
17033;DHT22;63208;52.178;21.016;2024-03-02T00:44:33;8.50;99.90
17033;DHT22;63208;52.178;21.016;2024-03-02T00:47:01;8.50;99.90
17033;DHT22;63208;52.178;21.016;2024-03-02T00:49:28;8.50;99.90
17033;DHT22;63208;52.178;21.016;2024-03-02T00:51:55;8.40;99.90
17033;DHT22;63208;52.178;21.016;2024-03-02T00:54:23;8.50;99.90
17033;DHT22;63208;52.178;21.016;2024-03-02T00:56:50;8.50;99.90
17033;DHT22;63208;52.178;21.016;2024-03-02T00:59:16;8.50;99.90
17033;DHT22;63208;52.178;21.016;2024-03-02T01:01:45;8.50;99.90
17033;DHT22;63208;52.178;21.016;2024-03-02T01:04:11;8.50;99.90
17033;DHT22;63208;52.178;21.016;2024-03-02T01:06:39;8.50;99.90
17033;DHT22;63208;52.178;21.016;2024-03-02T01:09:06;8.40;99.90
17033;DHT22;63208;52.178;21.016;2024-03-02T01:11:33;8.40;99.90
17033;DHT22;63208;52.178;21.016;2024-03-02T01:13:59;8.40;99.90
17033;DHT22;63208;52.178;21.016;2024-03-02T01:16:26;8.50;99.90
17033;DHT22;63208;52.178;21.016;2024-03-02T01:18:54;8.50;99.90
17033;DHT22;63208;52.178;21.016;2024-03-02T01:21:21;8.50;99.90
17033;DHT22;63208;52.178;21.016;2024-03-02T01:23:48;8.30;99.90
17033;DHT22;63208;52.178;21.016;2024-03-02T01:26:15;8.40;99.90
17033;DHT22;63208;52.178;21.016;2024-03-02T01:28:41;8.30;99.90
17033;DHT22;63208;52.178;21.016;2024-03-02T01:31:08;8.30;99.90
17033;DHT22;63208;52.178;21.016;2024-03-02T01:33:35;8.40;99.90
17033;DHT22;63208;52.178;21.016;2024-03-02T01:36:03;8.40;99.90
17033;DHT22;63208;52.178;21.016;2024-03-02T01:38:30;8.30;99.90
17033;DHT22;63208;52.178;21.016;2024-03-02T01:40:57;8.40;99.90
17033;DHT22;63208;52.178;21.016;2024-03-02T01:43:24;8.40;99.90
17033;DHT22;63208;52.178;21.016;2024-03-02T01:45:51;8.40;99.90
17033;DHT22;63208;52.178;21.016;2024-03-02T01:48:18;8.30;99.90
17033;DHT22;63208;52.178;21.016;2024-03-02T01:50:45;8.30;99.90
17033;DHT22;63208;52.178;21.016;2024-03-02T01:53:13;8.40;99.90
17033;DHT22;63208;52.178;21.016;2024-03-02T01:55:40;8.30;99.90
17033;DHT22;63208;52.178;21.016;2024-03-02T01:58:07;8.20;99.90
17033;DHT22;63208;52.178;21.016;2024-03-02T02:00:34;8.10;99.90
17033;DHT22;63208;52.178;21.016;2024-03-02T02:03:01;8.20;99.90
17033;DHT22;63208;52.178;21.016;2024-03-02T02:05:27;8.20;99.90
17033;DHT22;63208;52.178;21.016;2024-03-02T02:07:54;8.10;99.90
17033;DHT22;63208;52.178;21.016;2024-03-02T02:10:25;8.20;99.90
17033;DHT22;63208;52.178;21.016;2024-03-02T02:12:52;8.20;99.90
17033;DHT22;63208;52.178;21.016;2024-03-02T02:15:22;8.20;99.90
17033;DHT22;63208;52.178;21.016;2024-03-02T02:17:49;8.20;99.90
17033;DHT22;63208;52.178;21.016;2024-03-02T02:20:16;8.20;99.90
17033;DHT22;63208;52.178;21.016;2024-03-02T02:22:53;8.20;99.90
17033;DHT22;63208;52.178;21.016;2024-03-02T02:25:20;8.20;99.90
17033;DHT22;63208;52.178;21.016;2024-03-02T02:27:47;8.20;99.90
17033;DHT22;63208;52.178;21.016;2024-03-02T02:30:14;8.10;99.90
17033;DHT22;63208;52.178;21.016;2024-03-02T02:32:44;8.10;99.90
17033;DHT22;63208;52.178;21.016;2024-03-02T02:35:11;8.00;99.90
17033;DHT22;63208;52.178;21.016;2024-03-02T02:37:38;8.10;99.90
17033;DHT22;63208;52.178;21.016;2024-03-02T02:40:07;8.10;99.90
17033;DHT22;63208;52.178;21.016;2024-03-02T02:42:34;8.00;99.90
17033;DHT22;63208;52.178;21.016;2024-03-02T02:45:01;8.00;99.90
17033;DHT22;63208;52.178;21.016;2024-03-02T02:47:28;8.00;99.90
17033;DHT22;63208;52.178;21.016;2024-03-02T02:49:55;8.00;99.90
17033;DHT22;63208;52.178;21.016;2024-03-02T02:52:22;7.90;99.90
17033;DHT22;63208;52.178;21.016;2024-03-02T02:54:51;8.00;99.90
17033;DHT22;63208;52.178;21.016;2024-03-02T02:57:20;8.00;99.90
17033;DHT22;63208;52.178;21.016;2024-03-02T02:59:46;7.90;99.90
17033;DHT22;63208;52.178;21.016;2024-03-02T03:02:13;7.90;99.90
17033;DHT22;63208;52.178;21.016;2024-03-02T03:04:40;8.00;99.90
17033;DHT22;63208;52.178;21.016;2024-03-02T03:07:06;7.90;99.90
17033;DHT22;63208;52.178;21.016;2024-03-02T03:09:33;7.90;99.90
17033;DHT22;63208;52.178;21.016;2024-03-02T03:12:04;7.90;99.90
17033;DHT22;63208;52.178;21.016;2024-03-02T03:14:32;7.90;99.90
17033;DHT22;63208;52.178;21.016;2024-03-02T03:16:59;8.00;99.90
17033;DHT22;63208;52.178;21.016;2024-03-02T03:19:26;8.00;99.90
17033;DHT22;63208;52.178;21.016;2024-03-02T03:21:53;7.90;99.90
17033;DHT22;63208;52.178;21.016;2024-03-02T03:24:19;7.80;99.90
17033;DHT22;63208;52.178;21.016;2024-03-02T03:26:46;7.80;99.90
17033;DHT22;63208;52.178;21.016;2024-03-02T03:29:13;7.80;99.90
17033;DHT22;63208;52.178;21.016;2024-03-02T03:31:41;7.80;99.90
17033;DHT22;63208;52.178;21.016;2024-03-02T03:34:08;7.90;99.90
17033;DHT22;63208;52.178;21.016;2024-03-02T03:36:34;7.90;99.90
17033;DHT22;63208;52.178;21.016;2024-03-02T03:39:02;7.70;99.90
17033;DHT22;63208;52.178;21.016;2024-03-02T03:41:30;7.70;99.90
17033;DHT22;63208;52.178;21.016;2024-03-02T03:43:57;7.70;99.90
17033;DHT22;63208;52.178;21.016;2024-03-02T03:46:23;7.80;99.90
17033;DHT22;63208;52.178;21.016;2024-03-02T03:48:51;7.70;99.90
17033;DHT22;63208;52.178;21.016;2024-03-02T03:51:18;7.80;99.90
17033;DHT22;63208;52.178;21.016;2024-03-02T03:53:45;7.70;99.90
17033;DHT22;63208;52.178;21.016;2024-03-02T03:56:12;7.70;99.90
17033;DHT22;63208;52.178;21.016;2024-03-02T03:58:38;7.70;99.90
17033;DHT22;63208;52.178;21.016;2024-03-02T04:01:05;7.80;99.90
17033;DHT22;63208;52.178;21.016;2024-03-02T04:03:32;7.70;99.90
17033;DHT22;63208;52.178;21.016;2024-03-02T04:06:00;7.70;99.90
17033;DHT22;63208;52.178;21.016;2024-03-02T04:08:28;7.70;99.90
17033;DHT22;63208;52.178;21.016;2024-03-02T04:10:54;7.80;99.90
17033;DHT22;63208;52.178;21.016;2024-03-02T04:13:21;7.80;99.90
17033;DHT22;63208;52.178;21.016;2024-03-02T04:15:48;7.70;99.90
17033;DHT22;63208;52.178;21.016;2024-03-02T04:18:15;7.70;99.90
17033;DHT22;63208;52.178;21.016;2024-03-02T04:20:41;7.70;99.90
17033;DHT22;63208;52.178;21.016;2024-03-02T04:23:10;7.70;99.90
17033;DHT22;63208;52.178;21.016;2024-03-02T04:25:36;7.60;99.90
17033;DHT22;63208;52.178;21.016;2024-03-02T04:28:03;7.50;99.90
17033;DHT22;63208;52.178;21.016;2024-03-02T04:30:30;7.60;99.90
17033;DHT22;63208;52.178;21.016;2024-03-02T04:32:57;7.50;99.90
17033;DHT22;63208;52.178;21.016;2024-03-02T04:35:24;7.60;99.90
17033;DHT22;63208;52.178;21.016;2024-03-02T04:37:51;7.60;99.90
17033;DHT22;63208;52.178;21.016;2024-03-02T04:40:19;7.60;99.90
17033;DHT22;63208;52.178;21.016;2024-03-02T04:42:45;7.60;99.90
17033;DHT22;63208;52.178;21.016;2024-03-02T04:45:12;7.60;99.90
17033;DHT22;63208;52.178;21.016;2024-03-02T04:47:39;7.60;99.90
17033;DHT22;63208;52.178;21.016;2024-03-02T04:50:06;7.60;99.90
17033;DHT22;63208;52.178;21.016;2024-03-02T04:52:33;7.60;99.90
17033;DHT22;63208;52.178;21.016;2024-03-02T04:55:00;7.50;99.90
17033;DHT22;63208;52.178;21.016;2024-03-02T04:57:46;7.60;99.90
17033;DHT22;63208;52.178;21.016;2024-03-02T05:00:13;7.60;99.90
17033;DHT22;63208;52.178;21.016;2024-03-02T05:02:40;7.60;99.90
17033;DHT22;63208;52.178;21.016;2024-03-02T05:05:07;7.60;99.90
17033;DHT22;63208;52.178;21.016;2024-03-02T05:07:33;7.60;99.90
17033;DHT22;63208;52.178;21.016;2024-03-02T05:10:00;7.60;99.90
17033;DHT22;63208;52.178;21.016;2024-03-02T05:12:27;7.60;99.90
17033;DHT22;63208;52.178;21.016;2024-03-02T05:15:23;7.70;99.90
17033;DHT22;63208;52.178;21.016;2024-03-02T05:17:50;7.60;99.90
17033;DHT22;63208;52.178;21.016;2024-03-02T05:20:16;7.40;99.90
17033;DHT22;63208;52.178;21.016;2024-03-02T05:22:43;7.50;99.90
17033;DHT22;63208;52.178;21.016;2024-03-02T05:25:10;7.50;99.90
17033;DHT22;63208;52.178;21.016;2024-03-02T05:27:37;7.50;99.90
17033;DHT22;63208;52.178;21.016;2024-03-02T05:30:04;7.50;99.90
17033;DHT22;63208;52.178;21.016;2024-03-02T05:32:34;7.60;99.90
17033;DHT22;63208;52.178;21.016;2024-03-02T05:35:01;7.60;99.90
17033;DHT22;63208;52.178;21.016;2024-03-02T05:37:28;7.60;99.90
17033;DHT22;63208;52.178;21.016;2024-03-02T05:39:55;7.70;99.90
17033;DHT22;63208;52.178;21.016;2024-03-02T05:42:22;7.60;99.90
17033;DHT22;63208;52.178;21.016;2024-03-02T05:44:48;7.60;99.90
17033;DHT22;63208;52.178;21.016;2024-03-02T05:47:15;7.60;99.90
17033;DHT22;63208;52.178;21.016;2024-03-02T05:49:43;7.60;99.90
17033;DHT22;63208;52.178;21.016;2024-03-02T05:52:10;7.70;99.90
17033;DHT22;63208;52.178;21.016;2024-03-02T05:54:38;7.70;99.90
17033;DHT22;63208;52.178;21.016;2024-03-02T05:57:05;7.70;99.90
17033;DHT22;63208;52.178;21.016;2024-03-02T05:59:53;7.70;99.90
17033;DHT22;63208;52.178;21.016;2024-03-02T06:02:19;7.70;99.90
17033;DHT22;63208;52.178;21.016;2024-03-02T06:04:47;7.70;99.90
17033;DHT22;63208;52.178;21.016;2024-03-02T06:07:14;7.70;99.90
17033;DHT22;63208;52.178;21.016;2024-03-02T06:09:41;7.80;99.90
17033;DHT22;63208;52.178;21.016;2024-03-02T06:12:08;7.80;99.90
17033;DHT22;63208;52.178;21.016;2024-03-02T06:14:34;7.80;99.90
17033;DHT22;63208;52.178;21.016;2024-03-02T06:17:01;7.80;99.90
17033;DHT22;63208;52.178;21.016;2024-03-02T06:19:28;7.90;99.90
17033;DHT22;63208;52.178;21.016;2024-03-02T06:21:56;7.80;99.90
17033;DHT22;63208;52.178;21.016;2024-03-02T06:24:23;7.80;99.90
17033;DHT22;63208;52.178;21.016;2024-03-02T06:26:51;7.80;99.90
17033;DHT22;63208;52.178;21.016;2024-03-02T06:29:18;7.90;99.90
17033;DHT22;63208;52.178;21.016;2024-03-02T06:31:45;8.00;99.90
17033;DHT22;63208;52.178;21.016;2024-03-02T06:34:12;7.90;99.90
17033;DHT22;63208;52.178;21.016;2024-03-02T06:36:38;7.80;99.90
17033;DHT22;63208;52.178;21.016;2024-03-02T06:39:08;7.90;99.90
17033;DHT22;63208;52.178;21.016;2024-03-02T06:41:35;8.00;99.90
17033;DHT22;63208;52.178;21.016;2024-03-02T06:44:02;7.90;99.90
17033;DHT22;63208;52.178;21.016;2024-03-02T06:46:29;7.90;99.90
17033;DHT22;63208;52.178;21.016;2024-03-02T06:48:56;8.00;99.90
17033;DHT22;63208;52.178;21.016;2024-03-02T06:51:23;8.00;99.90
17033;DHT22;63208;52.178;21.016;2024-03-02T06:53:49;8.00;99.90
17033;DHT22;63208;52.178;21.016;2024-03-02T06:56:17;8.10;99.90
17033;DHT22;63208;52.178;21.016;2024-03-02T06:58:44;8.10;99.90
17033;DHT22;63208;52.178;21.016;2024-03-02T07:01:11;8.10;99.90
17033;DHT22;63208;52.178;21.016;2024-03-02T07:03:38;8.10;99.90
17033;DHT22;63208;52.178;21.016;2024-03-02T07:06:05;8.10;99.90
17033;DHT22;63208;52.178;21.016;2024-03-02T07:08:32;8.20;99.90
17033;DHT22;63208;52.178;21.016;2024-03-02T07:10:59;8.20;99.90
17033;DHT22;63208;52.178;21.016;2024-03-02T07:13:27;8.20;99.90
17033;DHT22;63208;52.178;21.016;2024-03-02T07:15:54;8.20;99.90
17033;DHT22;63208;52.178;21.016;2024-03-02T07:18:52;8.20;99.90
17033;DHT22;63208;52.178;21.016;2024-03-02T07:21:20;8.30;99.90
17033;DHT22;63208;52.178;21.016;2024-03-02T07:23:47;8.30;99.90
17033;DHT22;63208;52.178;21.016;2024-03-02T07:26:14;8.20;99.90
17033;DHT22;63208;52.178;21.016;2024-03-02T07:28:43;8.30;99.90
17033;DHT22;63208;52.178;21.016;2024-03-02T07:31:10;8.20;99.90
17033;DHT22;63208;52.178;21.016;2024-03-02T07:33:37;8.20;99.90
17033;DHT22;63208;52.178;21.016;2024-03-02T07:36:04;8.30;99.90
17033;DHT22;63208;52.178;21.016;2024-03-02T07:38:29;8.30;99.90
17033;DHT22;63208;52.178;21.016;2024-03-02T07:40:57;8.30;99.90
17033;DHT22;63208;52.178;21.016;2024-03-02T07:43:23;8.40;99.90
17033;DHT22;63208;52.178;21.016;2024-03-02T07:45:52;8.40;99.90
17033;DHT22;63208;52.178;21.016;2024-03-02T07:48:19;8.40;99.90
17033;DHT22;63208;52.178;21.016;2024-03-02T07:50:45;8.50;99.90
17033;DHT22;63208;52.178;21.016;2024-03-02T07:53:12;8.50;99.90
17033;DHT22;63208;52.178;21.016;2024-03-02T07:55:39;8.50;99.90
17033;DHT22;63208;52.178;21.016;2024-03-02T07:58:06;8.50;99.90
17033;DHT22;63208;52.178;21.016;2024-03-02T08:00:33;8.60;99.90
17033;DHT22;63208;52.178;21.016;2024-03-02T08:03:02;8.50;99.90
17033;DHT22;63208;52.178;21.016;2024-03-02T08:05:28;8.60;99.90
17033;DHT22;63208;52.178;21.016;2024-03-02T08:07:55;8.50;99.90
17033;DHT22;63208;52.178;21.016;2024-03-02T08:10:22;8.60;99.90
17033;DHT22;63208;52.178;21.016;2024-03-02T08:12:49;8.60;99.90
17033;DHT22;63208;52.178;21.016;2024-03-02T08:15:15;8.60;99.90
17033;DHT22;63208;52.178;21.016;2024-03-02T08:17:42;8.70;99.90
17033;DHT22;63208;52.178;21.016;2024-03-02T08:20:15;8.70;99.90
17033;DHT22;63208;52.178;21.016;2024-03-02T08:22:41;8.70;99.90
17033;DHT22;63208;52.178;21.016;2024-03-02T08:25:08;8.60;99.90
17033;DHT22;63208;52.178;21.016;2024-03-02T08:27:36;8.70;99.90
17033;DHT22;63208;52.178;21.016;2024-03-02T08:30:03;8.60;99.90
17033;DHT22;63208;52.178;21.016;2024-03-02T08:32:31;8.60;99.90
17033;DHT22;63208;52.178;21.016;2024-03-02T08:34:58;8.70;99.90
17033;DHT22;63208;52.178;21.016;2024-03-02T08:37:26;8.70;99.90
17033;DHT22;63208;52.178;21.016;2024-03-02T08:39:53;8.70;99.90
17033;DHT22;63208;52.178;21.016;2024-03-02T08:42:20;8.70;99.90
17033;DHT22;63208;52.178;21.016;2024-03-02T08:44:47;8.70;99.90
17033;DHT22;63208;52.178;21.016;2024-03-02T08:47:14;8.80;99.90
17033;DHT22;63208;52.178;21.016;2024-03-02T08:49:41;8.70;99.90
17033;DHT22;63208;52.178;21.016;2024-03-02T08:52:08;8.70;99.90
17033;DHT22;63208;52.178;21.016;2024-03-02T08:54:36;8.70;99.90
17033;DHT22;63208;52.178;21.016;2024-03-02T08:57:03;8.70;99.90
17033;DHT22;63208;52.178;21.016;2024-03-02T08:59:30;8.70;99.90
17033;DHT22;63208;52.178;21.016;2024-03-02T09:01:57;8.80;99.90
17033;DHT22;63208;52.178;21.016;2024-03-02T09:04:24;8.80;99.90
17033;DHT22;63208;52.178;21.016;2024-03-02T09:06:50;8.80;99.90
17033;DHT22;63208;52.178;21.016;2024-03-02T09:09:17;8.80;99.90
17033;DHT22;63208;52.178;21.016;2024-03-02T09:11:46;8.80;99.90
17033;DHT22;63208;52.178;21.016;2024-03-02T09:14:13;8.90;99.90
17033;DHT22;63208;52.178;21.016;2024-03-02T09:16:41;8.90;99.90
17033;DHT22;63208;52.178;21.016;2024-03-02T09:19:07;8.90;99.90
17033;DHT22;63208;52.178;21.016;2024-03-02T09:21:34;9.00;99.90
17033;DHT22;63208;52.178;21.016;2024-03-02T09:24:01;9.00;99.90
17033;DHT22;63208;52.178;21.016;2024-03-02T09:26:29;9.10;99.90
17033;DHT22;63208;52.178;21.016;2024-03-02T09:28:57;9.10;99.90
17033;DHT22;63208;52.178;21.016;2024-03-02T09:31:22;9.10;99.90
17033;DHT22;63208;52.178;21.016;2024-03-02T09:33:49;9.00;99.90
17033;DHT22;63208;52.178;21.016;2024-03-02T09:36:16;11.30;99.90
17033;DHT22;63208;52.178;21.016;2024-03-02T09:38:43;9.10;99.90
17033;DHT22;63208;52.178;21.016;2024-03-02T09:41:10;9.20;99.90
17033;DHT22;63208;52.178;21.016;2024-03-02T09:43:37;9.20;99.90
17033;DHT22;63208;52.178;21.016;2024-03-02T09:46:05;9.20;99.90
17033;DHT22;63208;52.178;21.016;2024-03-02T09:48:33;9.30;99.90
17033;DHT22;63208;52.178;21.016;2024-03-02T09:51:00;9.30;99.90
17033;DHT22;63208;52.178;21.016;2024-03-02T09:53:27;9.30;99.90
17033;DHT22;63208;52.178;21.016;2024-03-02T09:55:56;9.40;99.90
17033;DHT22;63208;52.178;21.016;2024-03-02T09:58:23;9.40;99.90
17033;DHT22;63208;52.178;21.016;2024-03-02T10:00:49;9.40;99.90
17033;DHT22;63208;52.178;21.016;2024-03-02T10:03:18;9.40;99.90
17033;DHT22;63208;52.178;21.016;2024-03-02T10:05:44;9.50;99.90
17033;DHT22;63208;52.178;21.016;2024-03-02T10:08:11;9.60;99.90
17033;DHT22;63208;52.178;21.016;2024-03-02T10:10:38;9.70;99.90
17033;DHT22;63208;52.178;21.016;2024-03-02T10:13:07;9.60;99.90
17033;DHT22;63208;52.178;21.016;2024-03-02T10:15:35;9.70;99.90
17033;DHT22;63208;52.178;21.016;2024-03-02T10:18:03;9.70;99.90
17033;DHT22;63208;52.178;21.016;2024-03-02T10:20:31;9.80;99.90
17033;DHT22;63208;52.178;21.016;2024-03-02T10:23:09;9.90;99.90
17033;DHT22;63208;52.178;21.016;2024-03-02T10:25:36;9.80;99.90
17033;DHT22;63208;52.178;21.016;2024-03-02T10:28:03;9.80;99.90
17033;DHT22;63208;52.178;21.016;2024-03-02T10:30:32;9.90;99.90
17033;DHT22;63208;52.178;21.016;2024-03-02T10:32:59;10.00;99.90
17033;DHT22;63208;52.178;21.016;2024-03-02T10:35:26;9.90;99.90
17033;DHT22;63208;52.178;21.016;2024-03-02T10:37:54;10.00;99.90
17033;DHT22;63208;52.178;21.016;2024-03-02T10:40:21;10.10;99.90
17033;DHT22;63208;52.178;21.016;2024-03-02T10:42:49;10.20;99.90
17033;DHT22;63208;52.178;21.016;2024-03-02T10:45:16;10.30;99.90
17033;DHT22;63208;52.178;21.016;2024-03-02T10:47:44;10.40;99.90
17033;DHT22;63208;52.178;21.016;2024-03-02T10:50:13;10.40;99.90
17033;DHT22;63208;52.178;21.016;2024-03-02T10:52:39;10.50;99.90
17033;DHT22;63208;52.178;21.016;2024-03-02T10:55:08;10.50;99.90
17033;DHT22;63208;52.178;21.016;2024-03-02T10:57:40;10.60;99.90
17033;DHT22;63208;52.178;21.016;2024-03-02T11:00:08;10.60;99.90
17033;DHT22;63208;52.178;21.016;2024-03-02T11:02:41;10.50;99.90
17033;DHT22;63208;52.178;21.016;2024-03-02T11:05:09;10.50;99.90
17033;DHT22;63208;52.178;21.016;2024-03-02T11:07:37;10.50;99.90
17033;DHT22;63208;52.178;21.016;2024-03-02T11:10:04;10.50;99.90
17033;DHT22;63208;52.178;21.016;2024-03-02T11:12:36;10.40;99.90
17033;DHT22;63208;52.178;21.016;2024-03-02T11:15:06;10.40;99.90
17033;DHT22;63208;52.178;21.016;2024-03-02T11:17:35;10.30;99.90
17033;DHT22;63208;52.178;21.016;2024-03-02T11:20:03;10.40;99.90
17033;DHT22;63208;52.178;21.016;2024-03-02T11:22:35;10.40;99.90
17033;DHT22;63208;52.178;21.016;2024-03-02T11:25:02;10.50;99.90
17033;DHT22;63208;52.178;21.016;2024-03-02T11:30:24;10.60;99.90
17033;DHT22;63208;52.178;21.016;2024-03-02T11:33:11;10.70;99.90
17033;DHT22;63208;52.178;21.016;2024-03-02T11:35:42;10.80;99.90
17033;DHT22;63208;52.178;21.016;2024-03-02T11:38:09;10.80;99.90
17033;DHT22;63208;52.178;21.016;2024-03-02T11:40:36;10.80;99.90
17033;DHT22;63208;52.178;21.016;2024-03-02T11:43:03;10.70;99.90
17033;DHT22;63208;52.178;21.016;2024-03-02T11:45:32;10.80;99.90
17033;DHT22;63208;52.178;21.016;2024-03-02T11:47:59;10.90;99.90
17033;DHT22;63208;52.178;21.016;2024-03-02T11:50:29;11.00;99.90
17033;DHT22;63208;52.178;21.016;2024-03-02T11:52:56;10.90;99.90
17033;DHT22;63208;52.178;21.016;2024-03-02T11:55:24;11.10;99.90
17033;DHT22;63208;52.178;21.016;2024-03-02T11:57:52;11.30;99.90
17033;DHT22;63208;52.178;21.016;2024-03-02T12:00:19;11.40;99.90
17033;DHT22;63208;52.178;21.016;2024-03-02T12:02:47;11.50;99.90
17033;DHT22;63208;52.178;21.016;2024-03-02T12:05:15;11.60;99.90
17033;DHT22;63208;52.178;21.016;2024-03-02T12:07:43;11.60;99.90
17033;DHT22;63208;52.178;21.016;2024-03-02T12:10:10;11.70;99.90
17033;DHT22;63208;52.178;21.016;2024-03-02T12:12:37;11.80;99.90
17033;DHT22;63208;52.178;21.016;2024-03-02T12:15:04;11.90;99.90
17033;DHT22;63208;52.178;21.016;2024-03-02T12:17:31;11.80;99.90
17033;DHT22;63208;52.178;21.016;2024-03-02T12:20:00;11.80;99.90
17033;DHT22;63208;52.178;21.016;2024-03-02T12:22:29;11.90;99.90
17033;DHT22;63208;52.178;21.016;2024-03-02T12:24:55;11.90;99.90
17033;DHT22;63208;52.178;21.016;2024-03-02T12:27:22;11.80;99.90
17033;DHT22;63208;52.178;21.016;2024-03-02T12:29:49;11.90;99.90
17033;DHT22;63208;52.178;21.016;2024-03-02T12:32:16;12.00;99.90
17033;DHT22;63208;52.178;21.016;2024-03-02T12:34:46;12.00;99.90
17033;DHT22;63208;52.178;21.016;2024-03-02T12:37:14;11.80;99.90
17033;DHT22;63208;52.178;21.016;2024-03-02T12:39:44;11.80;99.90
17033;DHT22;63208;52.178;21.016;2024-03-02T12:42:11;11.70;99.90
17033;DHT22;63208;52.178;21.016;2024-03-02T12:44:37;11.80;99.90
17033;DHT22;63208;52.178;21.016;2024-03-02T12:47:06;11.80;99.90
17033;DHT22;63208;52.178;21.016;2024-03-02T12:49:33;11.80;99.90
17033;DHT22;63208;52.178;21.016;2024-03-02T12:52:01;11.80;99.90
17033;DHT22;63208;52.178;21.016;2024-03-02T12:54:29;11.80;99.90
17033;DHT22;63208;52.178;21.016;2024-03-02T12:56:56;11.80;99.90
17033;DHT22;63208;52.178;21.016;2024-03-02T12:59:23;11.80;99.90
17033;DHT22;63208;52.178;21.016;2024-03-02T13:01:52;11.80;99.90
17033;DHT22;63208;52.178;21.016;2024-03-02T13:04:21;11.70;99.90
17033;DHT22;63208;52.178;21.016;2024-03-02T13:06:48;11.70;99.90
17033;DHT22;63208;52.178;21.016;2024-03-02T13:09:15;11.70;99.90
17033;DHT22;63208;52.178;21.016;2024-03-02T13:11:44;11.70;99.90
17033;DHT22;63208;52.178;21.016;2024-03-02T13:14:10;11.70;99.90
17033;DHT22;63208;52.178;21.016;2024-03-02T13:16:38;11.70;99.90
17033;DHT22;63208;52.178;21.016;2024-03-02T13:19:06;11.70;99.90
17033;DHT22;63208;52.178;21.016;2024-03-02T13:21:33;11.70;99.90
17033;DHT22;63208;52.178;21.016;2024-03-02T13:24:00;11.70;99.90
17033;DHT22;63208;52.178;21.016;2024-03-02T13:26:28;11.70;99.90
17033;DHT22;63208;52.178;21.016;2024-03-02T13:28:57;11.70;99.90
17033;DHT22;63208;52.178;21.016;2024-03-02T13:31:23;11.60;99.90
17033;DHT22;63208;52.178;21.016;2024-03-02T13:33:50;11.60;99.90
17033;DHT22;63208;52.178;21.016;2024-03-02T13:36:17;11.60;99.90
17033;DHT22;63208;52.178;21.016;2024-03-02T13:38:44;11.60;99.90
17033;DHT22;63208;52.178;21.016;2024-03-02T13:41:11;11.60;99.90
17033;DHT22;63208;52.178;21.016;2024-03-02T13:43:38;11.60;99.90
17033;DHT22;63208;52.178;21.016;2024-03-02T13:46:06;11.50;99.90
17033;DHT22;63208;52.178;21.016;2024-03-02T13:48:33;11.30;99.90
17033;DHT22;63208;52.178;21.016;2024-03-02T13:51:00;11.30;99.90
17033;DHT22;63208;52.178;21.016;2024-03-02T13:53:27;11.30;99.90
17033;DHT22;63208;52.178;21.016;2024-03-02T13:55:53;11.20;99.90
17033;DHT22;63208;52.178;21.016;2024-03-02T13:58:20;11.20;99.90
17033;DHT22;63208;52.178;21.016;2024-03-02T14:00:47;11.20;99.90
17033;DHT22;63208;52.178;21.016;2024-03-02T14:03:15;11.20;99.90
17033;DHT22;63208;52.178;21.016;2024-03-02T14:05:43;11.10;99.90
17033;DHT22;63208;52.178;21.016;2024-03-02T14:08:09;11.10;99.90
17033;DHT22;63208;52.178;21.016;2024-03-02T14:10:36;11.00;99.90
17033;DHT22;63208;52.178;21.016;2024-03-02T14:13:03;11.10;99.90
17033;DHT22;63208;52.178;21.016;2024-03-02T14:15:30;11.10;99.90
17033;DHT22;63208;52.178;21.016;2024-03-02T14:17:57;11.00;99.90
17033;DHT22;63208;52.178;21.016;2024-03-02T14:20:25;10.90;99.90
17033;DHT22;63208;52.178;21.016;2024-03-02T14:22:52;10.80;99.90
17033;DHT22;63208;52.178;21.016;2024-03-02T14:25:18;10.90;99.90
17033;DHT22;63208;52.178;21.016;2024-03-02T14:27:45;10.80;99.90
17033;DHT22;63208;52.178;21.016;2024-03-02T14:30:12;10.80;99.90
17033;DHT22;63208;52.178;21.016;2024-03-02T14:32:39;10.80;99.90
17033;DHT22;63208;52.178;21.016;2024-03-02T14:35:06;10.80;99.90
17033;DHT22;63208;52.178;21.016;2024-03-02T14:37:37;10.70;99.90
17033;DHT22;63208;52.178;21.016;2024-03-02T14:40:04;10.70;99.90
17033;DHT22;63208;52.178;21.016;2024-03-02T14:42:32;10.60;99.90
17033;DHT22;63208;52.178;21.016;2024-03-02T14:44:58;10.60;99.90
17033;DHT22;63208;52.178;21.016;2024-03-02T14:47:28;10.50;99.90
17033;DHT22;63208;52.178;21.016;2024-03-02T14:49:55;10.50;99.90
17033;DHT22;63208;52.178;21.016;2024-03-02T14:52:21;10.40;99.90
17033;DHT22;63208;52.178;21.016;2024-03-02T14:54:50;10.40;99.90
17033;DHT22;63208;52.178;21.016;2024-03-02T14:57:16;10.40;99.90
17033;DHT22;63208;52.178;21.016;2024-03-02T14:59:43;10.40;99.90
17033;DHT22;63208;52.178;21.016;2024-03-02T15:02:10;10.30;99.90
17033;DHT22;63208;52.178;21.016;2024-03-02T15:04:36;10.30;99.90
17033;DHT22;63208;52.178;21.016;2024-03-02T15:07:03;10.30;99.90
17033;DHT22;63208;52.178;21.016;2024-03-02T15:09:30;10.30;99.90
17033;DHT22;63208;52.178;21.016;2024-03-02T15:12:00;10.30;99.90
17033;DHT22;63208;52.178;21.016;2024-03-02T15:14:27;10.30;99.90
17033;DHT22;63208;52.178;21.016;2024-03-02T15:16:54;10.20;99.90
17033;DHT22;63208;52.178;21.016;2024-03-02T15:19:21;10.20;99.90
17033;DHT22;63208;52.178;21.016;2024-03-02T15:21:48;10.20;99.90
17033;DHT22;63208;52.178;21.016;2024-03-02T15:24:15;10.20;99.90
17033;DHT22;63208;52.178;21.016;2024-03-02T15:26:41;10.20;99.90
17033;DHT22;63208;52.178;21.016;2024-03-02T15:29:10;10.10;99.90